Station Historical Data
Daily Summary for February 12, 2019 Units:  Both    English   Metric
« Previous Day
Next Day »
Daily Weekly Monthly Yearly Custom
  High: Low: Average:
Temperature: TemperatureF °F /  -17.8 °C 37.6 °F /  3.1 °C 51.9 °F /  11.1 °C
Dew Point: DewpointF °F /  -17.8 °C 31.4 °F /  -0.3 °C 48.9 °F /  9.4 °C
Humidity: Humidity % 74 % 89 %
Wind Speed: WindSpeedMPH mph /  0 km/h - 4.7 mph /  7.6 km/h
Wind Gust: WindSpeedGustMPH mph /  0 km/h - -
Wind:- - SW
Pressure: PressureIn in /  0 hPa 29.72 in /  1006.3 hPa -
Precipitation: 0.80 in /  20.32 mm    
Historical Graphs
 
 
Tabular Data for February 12, 2019
Time Temperature Dew Point Pressure Wind Wind Speed Wind Gust Humidity Rainfall Rate (Hourly) solar Conditions
TemperatureF °F /  -17.8 °C DewpointF °F /  -17.8 °C PressureIn in /  0 hPa Calm     Humidity % HourlyPrecipIn in /  0 mm SolarRadiationWatts/m^2 W/m2 Conditions
00:04 58.6 °F /  14.8 °C 57.5 °F /  14.2 °C 29.82 in /  1009.7 hPa South 6.0 mph /  9.7 km/h 2.5 mph /  4 km/h 96 % 0.00 in /  0 mm 0.00 W/m2 RA
00:09 58.6 °F /  14.8 °C 57.5 °F /  14.2 °C 29.82 in /  1009.7 hPa ESE 3.5 mph /  5.6 km/h 5.8 mph /  9.3 km/h 96 % 0.00 in /  0 mm 0.00 W/m2 RA
00:14 58.7 °F /  14.8 °C 57.6 °F /  14.2 °C 29.82 in /  1009.7 hPa ESE 6.9 mph /  11.1 km/h 4.5 mph /  7.2 km/h 96 % 0.00 in /  0 mm 0.00 W/m2 OVC
00:19 58.8 °F /  14.9 °C 57.7 °F /  14.3 °C 29.82 in /  1009.7 hPa SE 6.9 mph /  11.1 km/h 4.5 mph /  7.2 km/h 96 % 0.00 in /  0 mm 0.00 W/m2 OVC
00:24 58.8 °F /  14.9 °C 57.7 °F /  14.3 °C 29.82 in /  1009.7 hPa SSE 8.1 mph /  13 km/h 3.6 mph /  5.8 km/h 96 % 0.00 in /  0 mm 0.00 W/m2 OVC
00:29 58.9 °F /  14.9 °C 57.8 °F /  14.3 °C 29.81 in /  1009.4 hPa ESE 6.0 mph /  9.7 km/h 4.8 mph /  7.7 km/h 96 % 0.00 in /  0 mm 0.00 W/m2 OVC
00:34 58.9 °F /  14.9 °C 57.8 °F /  14.3 °C 29.82 in /  1009.7 hPa SE 8.1 mph /  13 km/h 4.4 mph /  7.1 km/h 96 % 0.00 in /  0 mm 0.00 W/m2 OVC
00:39 59.0 °F /  15 °C 57.9 °F /  14.4 °C 29.81 in /  1009.4 hPa SE 7.0 mph /  11.3 km/h 4.1 mph /  6.6 km/h 96 % 0.00 in /  0 mm 0.00 W/m2 OVC
00:44 59.1 °F /  15.1 °C 58.0 °F /  14.4 °C 29.80 in /  1009 hPa SE 6.9 mph /  11.1 km/h 4.5 mph /  7.2 km/h 96 % 0.00 in /  0 mm 0.00 W/m2 OVC
00:49 59.1 °F /  15.1 °C 58.0 °F /  14.4 °C 29.80 in /  1009 hPa ESE 6.9 mph /  11.1 km/h 3.7 mph /  6 km/h 96 % 0.00 in /  0 mm 0.00 W/m2 OVC
00:54 59.1 °F /  15.1 °C 58.0 °F /  14.4 °C 29.80 in /  1009 hPa SSE 10.4 mph /  16.7 km/h 5.3 mph /  8.5 km/h 96 % 0.00 in /  0 mm 0.00 W/m2 OVC
00:59 59.2 °F /  15.1 °C 58.1 °F /  14.5 °C 29.80 in /  1009 hPa SE 8.1 mph /  13 km/h 5.6 mph /  9 km/h 96 % 0.00 in /  0 mm 0.00 W/m2 OVC
01:04 59.3 °F /  15.2 °C 58.2 °F /  14.6 °C 29.79 in /  1008.7 hPa SE 9.2 mph /  14.8 km/h 4.8 mph /  7.7 km/h 96 % 0.00 in /  0 mm 0.00 W/m2 OVC
01:09 59.4 °F /  15.2 °C 58.3 °F /  14.6 °C 29.79 in /  1008.7 hPa SE 10.4 mph /  16.7 km/h 6.3 mph /  10.1 km/h 96 % 0.00 in /  0 mm 0.00 W/m2 OVC
01:14 59.5 °F /  15.3 °C 58.4 °F /  14.7 °C 29.79 in /  1008.7 hPa ESE 7.0 mph /  11.3 km/h 5.4 mph /  8.7 km/h 96 % 0.00 in /  0 mm 0.00 W/m2 OVC
01:19 59.5 °F /  15.3 °C 58.4 °F /  14.7 °C 29.78 in /  1008.4 hPa ESE 8.1 mph /  13 km/h 4.9 mph /  7.9 km/h 96 % 0.00 in /  0 mm 0.00 W/m2 OVC
01:24 59.6 °F /  15.3 °C 58.2 °F /  14.6 °C 29.78 in /  1008.4 hPa SSE 10.4 mph /  16.7 km/h 4.9 mph /  7.9 km/h 95 % 0.00 in /  0 mm 0.00 W/m2 OVC
01:29 59.7 °F /  15.4 °C 58.3 °F /  14.6 °C 29.78 in /  1008.4 hPa SE 11.5 mph /  18.5 km/h 6.8 mph /  10.9 km/h 95 % 0.00 in /  0 mm 0.00 W/m2 OVC
01:34 59.8 °F /  15.4 °C 58.7 °F /  14.8 °C 29.78 in /  1008.4 hPa SE 10.4 mph /  16.7 km/h 7.6 mph /  12.2 km/h 96 % 0.00 in /  0 mm 0.00 W/m2 OVC
01:39 59.9 °F /  15.5 °C 58.5 °F /  14.7 °C 29.78 in /  1008.4 hPa SE 12.0 mph /  19.3 km/h 4.8 mph /  7.7 km/h 95 % 0.00 in /  0 mm 0.00 W/m2 OVC
01:44 60.0 °F /  15.6 °C 58.6 °F /  14.8 °C 29.77 in /  1008 hPa SE 5.0 mph /  8 km/h 3.3 mph /  5.3 km/h 95 % 0.00 in /  0 mm 0.00 W/m2 OVC
01:49 60.0 °F /  15.6 °C 58.6 °F /  14.8 °C 29.76 in /  1007.7 hPa SE 10.4 mph /  16.7 km/h 4.9 mph /  7.9 km/h 95 % 0.00 in /  0 mm 0.00 W/m2 OVC
01:54 60.1 °F /  15.6 °C 58.7 °F /  14.8 °C 29.77 in /  1008 hPa SSE 6.9 mph /  11.1 km/h 4.2 mph /  6.8 km/h 95 % 0.00 in /  0 mm 0.00 W/m2 OVC
01:59 60.2 °F /  15.7 °C 58.8 °F /  14.9 °C 29.77 in /  1008 hPa SSE 8.1 mph /  13 km/h 5.2 mph /  8.4 km/h 95 % 0.00 in /  0 mm 0.00 W/m2 OVC
02:04 60.3 °F /  15.7 °C 58.9 °F /  14.9 °C 29.77 in /  1008 hPa SE 5.8 mph /  9.3 km/h 3.5 mph /  5.6 km/h 95 % 0.00 in /  0 mm 0.00 W/m2 OVC
02:09 60.4 °F /  15.8 °C 59.0 °F /  15 °C 29.76 in /  1007.7 hPa SE 9.2 mph /  14.8 km/h 6.0 mph /  9.7 km/h 95 % 0.00 in /  0 mm 0.00 W/m2 OVC
02:14 60.5 °F /  15.8 °C 58.8 °F /  14.9 °C 29.76 in /  1007.7 hPa West 10.4 mph /  16.7 km/h 4.5 mph /  7.2 km/h 94 % 0.00 in /  0 mm 0.00 W/m2 OVC
02:19 60.6 °F /  15.9 °C 58.9 °F /  14.9 °C 29.76 in /  1007.7 hPa SSE 9.2 mph /  14.8 km/h 4.4 mph /  7.1 km/h 94 % 0.00 in /  0 mm 0.00 W/m2 OVC
02:24 60.8 °F /  16 °C 59.1 °F /  15.1 °C 29.76 in /  1007.7 hPa SE 8.1 mph /  13 km/h 5.8 mph /  9.3 km/h 94 % 0.00 in /  0 mm 0.00 W/m2 OVC
02:29 60.9 °F /  16.1 °C 59.2 °F /  15.1 °C 29.75 in /  1007.3 hPa SE 6.9 mph /  11.1 km/h 4.3 mph /  6.9 km/h 94 % 0.00 in /  0 mm 0.00 W/m2 OVC
02:34 60.9 °F /  16.1 °C 59.2 °F /  15.1 °C 29.75 in /  1007.3 hPa WSW 10.4 mph /  16.7 km/h 6.2 mph /  10 km/h 94 % 0.00 in /  0 mm 0.00 W/m2 OVC
02:39 60.9 °F /  16.1 °C 59.2 °F /  15.1 °C 29.75 in /  1007.3 hPa SSE 9.2 mph /  14.8 km/h 3.5 mph /  5.6 km/h 94 % 0.01 in /  0.25 mm 0.00 W/m2 RA
02:44 60.9 °F /  16.1 °C 59.2 °F /  15.1 °C 29.75 in /  1007.3 hPa ESE 5.8 mph /  9.3 km/h 1.9 mph /  3.1 km/h 94 % 0.01 in /  0.25 mm 0.00 W/m2 RA
02:49 60.9 °F /  16.1 °C 59.2 °F /  15.1 °C 29.75 in /  1007.3 hPa WNW 3.5 mph /  5.6 km/h 2.8 mph /  4.5 km/h 94 % 0.01 in /  0.25 mm 0.00 W/m2 OVC
02:54 60.9 °F /  16.1 °C 59.5 °F /  15.3 °C 29.75 in /  1007.3 hPa SE 5.8 mph /  9.3 km/h 4.5 mph /  7.2 km/h 95 % 0.02 in /  0.51 mm 0.00 W/m2 RA
02:59 60.8 °F /  16 °C 59.4 °F /  15.2 °C 29.75 in /  1007.3 hPa SE 6.9 mph /  11.1 km/h 3.3 mph /  5.3 km/h 95 % 0.02 in /  0.51 mm 0.00 W/m2 RA
03:04 60.9 °F /  16.1 °C 59.5 °F /  15.3 °C 29.75 in /  1007.3 hPa SE 9.2 mph /  14.8 km/h 5.5 mph /  8.9 km/h 95 % 0.03 in /  0.76 mm 0.00 W/m2 RA
03:09 60.9 °F /  16.1 °C 59.5 °F /  15.3 °C 29.74 in /  1007 hPa SE 6.9 mph /  11.1 km/h 3.2 mph /  5.1 km/h 95 % 0.04 in /  1.02 mm 0.00 W/m2 RA
03:14 60.9 °F /  16.1 °C 59.5 °F /  15.3 °C 29.74 in /  1007 hPa SSE 6.0 mph /  9.7 km/h 2.4 mph /  3.9 km/h 95 % 0.05 in /  1.27 mm 0.00 W/m2 RA
03:19 60.9 °F /  16.1 °C 59.5 °F /  15.3 °C 29.73 in /  1006.7 hPa SE 3.5 mph /  5.6 km/h 1.6 mph /  2.6 km/h 95 % 0.06 in /  1.52 mm 0.00 W/m2 RA
03:24 60.9 °F /  16.1 °C 59.8 °F /  15.4 °C 29.73 in /  1006.7 hPa SE 5.8 mph /  9.3 km/h 3.8 mph /  6.1 km/h 96 % 0.06 in /  1.52 mm 0.00 W/m2 RA
03:29 60.9 °F /  16.1 °C 59.8 °F /  15.4 °C 29.73 in /  1006.7 hPa SE 6.9 mph /  11.1 km/h 1.4 mph /  2.3 km/h 96 % 0.06 in /  1.52 mm 0.00 W/m2 OVC
03:34 60.9 °F /  16.1 °C 59.8 °F /  15.4 °C 29.73 in /  1006.7 hPa SSE 8.1 mph /  13 km/h 2.8 mph /  4.5 km/h 96 % 0.07 in /  1.78 mm 0.00 W/m2 RA
03:39 61.0 °F /  16.1 °C 59.9 °F /  15.5 °C 29.73 in /  1006.7 hPa SE 5.0 mph /  8 km/h 1.7 mph /  2.7 km/h 96 % 0.06 in /  1.52 mm 0.00 W/m2 RA
03:44 61.1 °F /  16.2 °C 60.0 °F /  15.6 °C 29.73 in /  1006.7 hPa SSE 4.6 mph /  7.4 km/h 1.0 mph /  1.6 km/h 96 % 0.06 in /  1.52 mm 0.00 W/m2 OVC
03:49 61.1 °F /  16.2 °C 60.0 °F /  15.6 °C 29.73 in /  1006.7 hPa WNW 4.6 mph /  7.4 km/h 1.7 mph /  2.7 km/h 96 % 0.06 in /  1.52 mm 0.00 W/m2 OVC
03:54 61.2 °F /  16.2 °C 60.1 °F /  15.6 °C 29.73 in /  1006.7 hPa WSW 4.6 mph /  7.4 km/h 2.4 mph /  3.9 km/h 96 % 0.05 in /  1.27 mm 0.00 W/m2 OVC
03:59 61.3 °F /  16.3 °C 60.2 °F /  15.7 °C 29.73 in /  1006.7 hPa SW 3.5 mph /  5.6 km/h 0.3 mph /  0.5 km/h 96 % 0.05 in /  1.27 mm 0.00 W/m2 OVC
04:04 61.3 °F /  16.3 °C 60.2 °F /  15.7 °C 29.73 in /  1006.7 hPa WSW 2.3 mph /  3.7 km/h 1.2 mph /  1.9 km/h 96 % 0.04 in /  1.02 mm 0.00 W/m2 OVC
04:09 61.3 °F /  16.3 °C 60.2 °F /  15.7 °C 29.73 in /  1006.7 hPa North 3.5 mph /  5.6 km/h 0.4 mph /  0.6 km/h 96 % 0.03 in /  0.76 mm 0.00 W/m2 OVC
04:14 61.4 °F /  16.3 °C 60.2 °F /  15.7 °C 29.73 in /  1006.7 hPa SW 2.3 mph /  3.7 km/h 0.9 mph /  1.4 km/h 96 % 0.02 in /  0.51 mm 0.00 W/m2 OVC
04:19 61.4 °F /  16.3 °C 60.2 °F /  15.7 °C 29.73 in /  1006.7 hPa West 3.5 mph /  5.6 km/h 1.6 mph /  2.6 km/h 96 % 0.01 in /  0.25 mm 0.00 W/m2 OVC
04:24 61.6 °F /  16.4 °C 60.4 °F /  15.8 °C 29.73 in /  1006.7 hPa SSE 5.8 mph /  9.3 km/h 1.6 mph /  2.6 km/h 96 % 0.01 in /  0.25 mm 0.00 W/m2 OVC
04:29 61.6 °F /  16.4 °C 60.4 °F /  15.8 °C 29.73 in /  1006.7 hPa SE 3.5 mph /  5.6 km/h 0.8 mph /  1.3 km/h 96 % 0.02 in /  0.51 mm 0.00 W/m2 RA
04:34 61.6 °F /  16.4 °C 60.4 °F /  15.8 °C 29.73 in /  1006.7 hPa WSW 8.1 mph /  13 km/h 3.2 mph /  5.1 km/h 96 % 0.01 in /  0.25 mm 0.00 W/m2 RA
04:39 61.7 °F /  16.5 °C 60.5 °F /  15.8 °C 29.72 in /  1006.3 hPa West 3.5 mph /  5.6 km/h 1.4 mph /  2.3 km/h 96 % 0.01 in /  0.25 mm 0.00 W/m2 OVC
04:44 61.7 °F /  16.5 °C 60.5 °F /  15.8 °C 29.74 in /  1007 hPa West 6.0 mph /  9.7 km/h 3.4 mph /  5.5 km/h 96 % 0.02 in /  0.51 mm 0.00 W/m2 RA
04:49 60.9 °F /  16.1 °C 59.5 °F /  15.3 °C 29.74 in /  1007 hPa West 8.1 mph /  13 km/h 4.7 mph /  7.6 km/h 95 % 0.17 in /  4.32 mm 0.00 W/m2 RA
04:54 59.6 °F /  15.3 °C 57.9 °F /  14.4 °C 29.72 in /  1006.3 hPa West 5.8 mph /  9.3 km/h 4.0 mph /  6.4 km/h 94 % 0.29 in /  7.37 mm 0.00 W/m2 RA
04:59 58.6 °F /  14.8 °C 56.9 °F /  13.8 °C 29.76 in /  1007.7 hPa SW 4.6 mph /  7.4 km/h 0.3 mph /  0.5 km/h 94 % 0.33 in /  8.38 mm 0.00 W/m2 RA
05:04 58.2 °F /  14.6 °C 56.8 °F /  13.8 °C 29.75 in /  1007.3 hPa WNW 4.0 mph /  6.4 km/h 2.3 mph /  3.7 km/h 95 % 0.35 in /  8.89 mm 0.00 W/m2 RA
05:09 57.8 °F /  14.3 °C 56.4 °F /  13.6 °C 29.76 in /  1007.7 hPa West 3.5 mph /  5.6 km/h 2.5 mph /  4 km/h 95 % 0.37 in /  9.4 mm 0.00 W/m2 RA
05:14 57.6 °F /  14.2 °C 56.2 °F /  13.4 °C 29.76 in /  1007.7 hPa West 2.3 mph /  3.7 km/h   95 % 0.39 in /  9.91 mm 0.00 W/m2 RA
05:19 57.5 °F /  14.2 °C 56.4 °F /  13.6 °C 29.76 in /  1007.7 hPa Calm     96 % 0.40 in /  10.16 mm 0.00 W/m2 RA
05:24 57.3 °F /  14.1 °C 56.2 °F /  13.4 °C 29.77 in /  1008 hPa Calm     96 % 0.41 in /  10.41 mm 0.00 W/m2 RA
05:29 57.2 °F /  14 °C 56.1 °F /  13.4 °C 29.77 in /  1008 hPa Calm     96 % 0.40 in /  10.16 mm 0.00 W/m2 RA
05:34 57.1 °F /  13.9 °C 56.0 °F /  13.3 °C 29.77 in /  1008 hPa Calm     96 % 0.41 in /  10.41 mm 0.00 W/m2 RA
05:39 57.1 °F /  13.9 °C 56.0 °F /  13.3 °C 29.77 in /  1008 hPa Calm     96 % 0.42 in /  10.67 mm 0.00 W/m2 RA
05:44 57.0 °F /  13.9 °C 55.9 °F /  13.3 °C 29.77 in /  1008 hPa Calm     96 % 0.43 in /  10.92 mm 0.00 W/m2 RA
05:49 57.0 °F /  13.9 °C 55.9 °F /  13.3 °C 29.77 in /  1008 hPa SSW 2.3 mph /  3.7 km/h 1.3 mph /  2.1 km/h 96 % 0.28 in /  7.11 mm 0.00 W/m2 RA
05:54 56.9 °F /  13.8 °C 56.1 °F /  13.4 °C 29.77 in /  1008 hPa South 2.0 mph /  3.2 km/h 0.3 mph /  0.5 km/h 97 % 0.16 in /  4.06 mm 0.00 W/m2 OVC
05:59 56.9 °F /  13.8 °C 56.1 °F /  13.4 °C 29.77 in /  1008 hPa WSW 1.0 mph /  1.6 km/h 0.1 mph /  0.2 km/h 97 % 0.13 in /  3.3 mm 0.00 W/m2 RA
06:04 56.9 °F /  13.8 °C 56.1 °F /  13.4 °C 29.77 in /  1008 hPa South 1.2 mph /  1.9 km/h 0.2 mph /  0.3 km/h 97 % 0.11 in /  2.79 mm 0.00 W/m2 RA
06:09 56.9 °F /  13.8 °C 56.1 °F /  13.4 °C 29.77 in /  1008 hPa South 2.3 mph /  3.7 km/h 1.0 mph /  1.6 km/h 97 % 0.09 in /  2.29 mm 0.00 W/m2 OVC
06:14 56.9 °F /  13.8 °C 56.1 °F /  13.4 °C 29.77 in /  1008 hPa SSE 3.5 mph /  5.6 km/h 1.0 mph /  1.6 km/h 97 % 0.08 in /  2.03 mm 0.00 W/m2 RA
06:19 56.8 °F /  13.8 °C 56.0 °F /  13.3 °C 29.77 in /  1008 hPa SSE 2.3 mph /  3.7 km/h 0.4 mph /  0.6 km/h 97 % 0.07 in /  1.78 mm 0.00 W/m2 RA
06:24 56.8 °F /  13.8 °C 56.0 °F /  13.3 °C 29.76 in /  1007.7 hPa Calm     97 % 0.06 in /  1.52 mm 0.00 W/m2 OVC
06:29 56.8 °F /  13.8 °C 56.0 °F /  13.3 °C 29.76 in /  1007.7 hPa Calm     97 % 0.06 in /  1.52 mm 0.00 W/m2 OVC
06:34 56.7 °F /  13.7 °C 55.9 °F /  13.3 °C 29.75 in /  1007.3 hPa Calm     97 % 0.06 in /  1.52 mm 0.00 W/m2 RA
06:39 56.7 °F /  13.7 °C 55.9 °F /  13.3 °C 29.75 in /  1007.3 hPa SSE 3.5 mph /  5.6 km/h 1.2 mph /  1.9 km/h 97 % 0.05 in /  1.27 mm 0.00 W/m2 RA
06:44 56.6 °F /  13.7 °C 55.8 °F /  13.2 °C 29.75 in /  1007.3 hPa SE 2.3 mph /  3.7 km/h 1.2 mph /  1.9 km/h 97 % 0.04 in /  1.02 mm 0.00 W/m2 RA
06:49 56.5 °F /  13.6 °C 55.7 °F /  13.2 °C 29.76 in /  1007.7 hPa Calm     97 % 0.04 in /  1.02 mm 0.00 W/m2 RA
06:54 56.5 °F /  13.6 °C 55.7 °F /  13.2 °C 29.76 in /  1007.7 hPa SE 3.0 mph /  4.8 km/h 0.5 mph /  0.8 km/h 97 % 0.04 in /  1.02 mm 0.00 W/m2 OVC
06:59 56.4 °F /  13.6 °C 55.6 °F /  13.1 °C 29.76 in /  1007.7 hPa SE 5.0 mph /  8 km/h 2.2 mph /  3.5 km/h 97 % 0.04 in /  1.02 mm 0.00 W/m2 RA
07:04 56.4 °F /  13.6 °C 55.6 °F /  13.1 °C 29.77 in /  1008 hPa SSE 2.3 mph /  3.7 km/h 0.3 mph /  0.5 km/h 97 % 0.04 in /  1.02 mm 0.00 W/m2 RA
07:09 56.3 °F /  13.5 °C 55.5 °F /  13.1 °C 29.77 in /  1008 hPa WSW 3.5 mph /  5.6 km/h 1.2 mph /  1.9 km/h 97 % 0.05 in /  1.27 mm 0.00 W/m2 RA
07:14 56.3 °F /  13.5 °C 55.5 °F /  13.1 °C 29.77 in /  1008 hPa SSE 3.5 mph /  5.6 km/h 1.5 mph /  2.4 km/h 97 % 0.05 in /  1.27 mm 5.00 W/m2 RA
07:19 56.3 °F /  13.5 °C 55.5 °F /  13.1 °C 29.77 in /  1008 hPa ESE 1.0 mph /  1.6 km/h 0.2 mph /  0.3 km/h 97 % 0.05 in /  1.27 mm 5.00 W/m2 RA
07:24 56.2 °F /  13.4 °C 55.4 °F /  13 °C 29.77 in /  1008 hPa SSE 2.3 mph /  3.7 km/h 0.2 mph /  0.3 km/h 97 % 0.06 in /  1.52 mm 5.00 W/m2 RA
07:29 56.2 °F /  13.4 °C 55.4 °F /  13 °C 29.77 in /  1008 hPa SSE 2.3 mph /  3.7 km/h 1.2 mph /  1.9 km/h 97 % 0.06 in /  1.52 mm 5.00 W/m2 RA
07:34 56.1 °F /  13.4 °C 55.3 °F /  12.9 °C 29.78 in /  1008.4 hPa SSE 3.5 mph /  5.6 km/h 1.4 mph /  2.3 km/h 97 % 0.06 in /  1.52 mm 5.00 W/m2 RA
07:39 56.0 °F /  13.3 °C 55.2 °F /  12.9 °C 29.76 in /  1007.7 hPa SE 3.5 mph /  5.6 km/h 1.5 mph /  2.4 km/h 97 % 0.07 in /  1.78 mm 7.00 W/m2 RA
07:44 56.0 °F /  13.3 °C 55.2 °F /  12.9 °C 29.77 in /  1008 hPa SSE 3.5 mph /  5.6 km/h 1.4 mph /  2.3 km/h 97 % 0.08 in /  2.03 mm 7.00 W/m2 RA
07:49 56.0 °F /  13.3 °C 55.2 °F /  12.9 °C 29.77 in /  1008 hPa Calm     97 % 0.09 in /  2.29 mm 9.00 W/m2 RA
07:54 56.0 °F /  13.3 °C 55.2 °F /  12.9 °C 29.78 in /  1008.4 hPa SE 3.5 mph /  5.6 km/h 0.6 mph /  1 km/h 97 % 0.11 in /  2.79 mm 11.00 W/m2 RA
07:59 55.9 °F /  13.3 °C 55.1 °F /  12.8 °C 29.78 in /  1008.4 hPa SE 3.5 mph /  5.6 km/h 1.3 mph /  2.1 km/h 97 % 0.11 in /  2.79 mm 11.00 W/m2 RA
08:04 55.9 °F /  13.3 °C 55.3 °F /  12.9 °C 29.78 in /  1008.4 hPa SSE 1.2 mph /  1.9 km/h 0.8 mph /  1.3 km/h 98 % 0.12 in /  3.05 mm 12.00 W/m2 RA
08:09 55.8 °F /  13.2 °C 55.2 °F /  12.9 °C 29.78 in /  1008.4 hPa SSE 3.5 mph /  5.6 km/h 0.8 mph /  1.3 km/h 98 % 0.12 in /  3.05 mm 14.00 W/m2 RA
08:14 55.8 °F /  13.2 °C 55.2 °F /  12.9 °C 29.78 in /  1008.4 hPa SSE 2.3 mph /  3.7 km/h 1.4 mph /  2.3 km/h 98 % 0.11 in /  2.79 mm 16.00 W/m2 RA
08:19 55.8 °F /  13.2 °C 55.2 °F /  12.9 °C 29.78 in /  1008.4 hPa SE 3.5 mph /  5.6 km/h 2.7 mph /  4.3 km/h 98 % 0.11 in /  2.79 mm 14.00 W/m2 OVC
08:24 55.8 °F /  13.2 °C 55.2 °F /  12.9 °C 29.79 in /  1008.7 hPa SSE 3.5 mph /  5.6 km/h 1.5 mph /  2.4 km/h 98 % 0.11 in /  2.79 mm 19.00 W/m2 RA
08:29 55.8 °F /  13.2 °C 55.2 °F /  12.9 °C 29.79 in /  1008.7 hPa SE 3.5 mph /  5.6 km/h 3.6 mph /  5.8 km/h 98 % 0.12 in /  3.05 mm 23.00 W/m2 RA
08:34 55.8 °F /  13.2 °C 55.0 °F /  12.8 °C 29.78 in /  1008.4 hPa SSE 4.0 mph /  6.4 km/h 2.2 mph /  3.5 km/h 97 % 0.11 in /  2.79 mm 25.00 W/m2 RA
08:39 55.8 °F /  13.2 °C 55.0 °F /  12.8 °C 29.78 in /  1008.4 hPa SSE 4.6 mph /  7.4 km/h 1.5 mph /  2.4 km/h 97 % 0.11 in /  2.79 mm 23.00 W/m2 RA
08:44 55.8 °F /  13.2 °C 55.0 °F /  12.8 °C 29.77 in /  1008 hPa SE 4.6 mph /  7.4 km/h 1.3 mph /  2.1 km/h 97 % 0.10 in /  2.54 mm 25.00 W/m2 RA
08:49 55.8 °F /  13.2 °C 55.0 °F /  12.8 °C 29.77 in /  1008 hPa SSW 3.5 mph /  5.6 km/h 1.4 mph /  2.3 km/h 97 % 0.09 in /  2.29 mm 32.00 W/m2 RA
08:54 55.8 °F /  13.2 °C 55.0 °F /  12.8 °C 29.77 in /  1008 hPa SE 2.3 mph /  3.7 km/h 0.1 mph /  0.2 km/h 97 % 0.07 in /  1.78 mm 32.00 W/m2 OVC
08:59 55.7 °F /  13.2 °C 54.9 °F /  12.7 °C 29.77 in /  1008 hPa SSE 2.3 mph /  3.7 km/h 1.4 mph /  2.3 km/h 97 % 0.06 in /  1.52 mm 26.00 W/m2 OVC
09:04 55.7 °F /  13.2 °C 54.9 °F /  12.7 °C 29.78 in /  1008.4 hPa Calm     97 % 0.06 in /  1.52 mm 28.00 W/m2 RA
09:09 55.7 °F /  13.2 °C 54.9 °F /  12.7 °C 29.78 in /  1008.4 hPa SSE 3.5 mph /  5.6 km/h 1.2 mph /  1.9 km/h 97 % 0.05 in /  1.27 mm 28.00 W/m2 RA
09:14 55.7 °F /  13.2 °C 55.1 °F /  12.8 °C 29.78 in /  1008.4 hPa SE 3.5 mph /  5.6 km/h 0.7 mph /  1.1 km/h 98 % 0.06 in /  1.52 mm 32.00 W/m2 RA
09:19 55.7 °F /  13.2 °C 55.1 °F /  12.8 °C 29.78 in /  1008.4 hPa South 3.5 mph /  5.6 km/h 1.0 mph /  1.6 km/h 98 % 0.06 in /  1.52 mm 28.00 W/m2 RA
09:24 55.7 °F /  13.2 °C 55.1 °F /  12.8 °C 29.77 in /  1008 hPa SSE 3.5 mph /  5.6 km/h 2.5 mph /  4 km/h 98 % 0.05 in /  1.27 mm 40.00 W/m2 OVC
09:29 55.7 °F /  13.2 °C 55.1 °F /  12.8 °C 29.77 in /  1008 hPa SE 3.5 mph /  5.6 km/h 1.9 mph /  3.1 km/h 98 % 0.05 in /  1.27 mm 37.00 W/m2 RA
09:34 55.7 °F /  13.2 °C 55.1 °F /  12.8 °C 29.75 in /  1007.3 hPa ESE 3.5 mph /  5.6 km/h 2.8 mph /  4.5 km/h 98 % 0.05 in /  1.27 mm 33.00 W/m2 RA
09:39 55.7 °F /  13.2 °C 55.1 °F /  12.8 °C 29.77 in /  1008 hPa SW 4.6 mph /  7.4 km/h 2.5 mph /  4 km/h 98 % 0.04 in /  1.02 mm 32.00 W/m2 OVC
09:44 55.7 °F /  13.2 °C 55.1 °F /  12.8 °C 29.77 in /  1008 hPa South 3.5 mph /  5.6 km/h 1.7 mph /  2.7 km/h 98 % 0.03 in /  0.76 mm 18.00 W/m2 OVC
09:49 55.7 °F /  13.2 °C 55.1 °F /  12.8 °C 29.77 in /  1008 hPa South 3.5 mph /  5.6 km/h 2.0 mph /  3.2 km/h 98 % 0.03 in /  0.76 mm 26.00 W/m2 OVC
09:54 55.7 °F /  13.2 °C 55.1 °F /  12.8 °C 29.77 in /  1008 hPa SW 2.3 mph /  3.7 km/h 1.0 mph /  1.6 km/h 98 % 0.04 in /  1.02 mm 39.00 W/m2 RA
09:59 55.7 °F /  13.2 °C 55.1 °F /  12.8 °C 29.76 in /  1007.7 hPa SSE 3.5 mph /  5.6 km/h 2.0 mph /  3.2 km/h 98 % 0.04 in /  1.02 mm 12.00 W/m2 RA
10:04 55.7 °F /  13.2 °C 55.1 °F /  12.8 °C 29.77 in /  1008 hPa South 3.5 mph /  5.6 km/h 0.4 mph /  0.6 km/h 98 % 0.03 in /  0.76 mm 49.00 W/m2 OVC
10:09 55.8 °F /  13.2 °C 55.2 °F /  12.9 °C 29.77 in /  1008 hPa SSW 3.5 mph /  5.6 km/h 1.4 mph /  2.3 km/h 98 % 0.03 in /  0.76 mm 32.00 W/m2 OVC
10:14 55.8 °F /  13.2 °C 55.2 °F /  12.9 °C 29.77 in /  1008 hPa South 5.0 mph /  8 km/h 2.8 mph /  4.5 km/h 98 % 0.02 in /  0.51 mm 42.00 W/m2 OVC
10:19 55.8 °F /  13.2 °C 55.2 °F /  12.9 °C 29.78 in /  1008.4 hPa WSW 4.6 mph /  7.4 km/h 1.4 mph /  2.3 km/h 98 % 0.02 in /  0.51 mm 33.00 W/m2 OVC
10:24 55.9 °F /  13.3 °C 55.3 °F /  12.9 °C 29.77 in /  1008 hPa South 3.5 mph /  5.6 km/h 0.4 mph /  0.6 km/h 98 % 0.02 in /  0.51 mm 28.00 W/m2 OVC
10:29 55.9 °F /  13.3 °C 55.3 °F /  12.9 °C 29.77 in /  1008 hPa SSE 4.6 mph /  7.4 km/h 2.2 mph /  3.5 km/h 98 % 0.01 in /  0.25 mm 46.00 W/m2 OVC
10:34 55.9 °F /  13.3 °C 55.3 °F /  12.9 °C 29.78 in /  1008.4 hPa SSE 4.0 mph /  6.4 km/h 1.6 mph /  2.6 km/h 98 % 0.01 in /  0.25 mm 37.00 W/m2 OVC
10:39 56.0 °F /  13.3 °C 55.4 °F /  13 °C 29.78 in /  1008.4 hPa South 3.5 mph /  5.6 km/h 1.5 mph /  2.4 km/h 98 % 0.01 in /  0.25 mm 30.00 W/m2 OVC
10:44 56.0 °F /  13.3 °C 55.4 °F /  13 °C 29.78 in /  1008.4 hPa SSE 3.0 mph /  4.8 km/h 1.8 mph /  2.9 km/h 98 % 0.01 in /  0.25 mm 18.00 W/m2 OVC
10:49 56.0 °F /  13.3 °C 55.4 °F /  13 °C 29.78 in /  1008.4 hPa SE 3.5 mph /  5.6 km/h 2.3 mph /  3.7 km/h 98 % 0.01 in /  0.25 mm 25.00 W/m2 OVC
10:54 56.0 °F /  13.3 °C 55.4 °F /  13 °C 29.78 in /  1008.4 hPa SSW 4.6 mph /  7.4 km/h 2.4 mph /  3.9 km/h 98 % 0.00 in /  0 mm 56.00 W/m2 OVC
10:59 56.0 °F /  13.3 °C 55.4 °F /  13 °C 29.77 in /  1008 hPa West 6.9 mph /  11.1 km/h 3.8 mph /  6.1 km/h 98 % 0.00 in /  0 mm 51.00 W/m2 OVC
11:04 56.1 °F /  13.4 °C 55.5 °F /  13.1 °C 29.76 in /  1007.7 hPa West 3.5 mph /  5.6 km/h 1.6 mph /  2.6 km/h 98 % 0.00 in /  0 mm 51.00 W/m2 OVC
11:09 56.2 °F /  13.4 °C 55.6 °F /  13.1 °C 29.76 in /  1007.7 hPa West 5.8 mph /  9.3 km/h 2.2 mph /  3.5 km/h 98 % 0.00 in /  0 mm 60.00 W/m2 OVC
11:14 56.3 °F /  13.5 °C 55.7 °F /  13.2 °C 29.76 in /  1007.7 hPa South 3.5 mph /  5.6 km/h 2.6 mph /  4.2 km/h 98 % 0.00 in /  0 mm 65.00 W/m2 OVC
11:19 56.4 °F /  13.6 °C 55.8 °F /  13.2 °C 29.76 in /  1007.7 hPa ESE 7.0 mph /  11.3 km/h 2.0 mph /  3.2 km/h 98 % 0.00 in /  0 mm 98.00 W/m2 OVC
11:24 56.5 °F /  13.6 °C 55.9 °F /  13.3 °C 29.76 in /  1007.7 hPa WSW 6.9 mph /  11.1 km/h 3.4 mph /  5.5 km/h 98 % 0.00 in /  0 mm 88.00 W/m2 OVC
11:29 56.6 °F /  13.7 °C 56.0 °F /  13.3 °C 29.76 in /  1007.7 hPa SSW 6.0 mph /  9.7 km/h 2.6 mph /  4.2 km/h 98 % 0.00 in /  0 mm 83.00 W/m2 OVC
11:34 56.7 °F /  13.7 °C 56.1 °F /  13.4 °C 29.75 in /  1007.3 hPa West 3.5 mph /  5.6 km/h 1.3 mph /  2.1 km/h 98 % 0.00 in /  0 mm 83.00 W/m2 OVC
11:39 56.8 °F /  13.8 °C 56.2 °F /  13.4 °C 29.75 in /  1007.3 hPa SSE 2.3 mph /  3.7 km/h 1.2 mph /  1.9 km/h 98 % 0.00 in /  0 mm 86.00 W/m2 OVC
11:44 56.9 °F /  13.8 °C 56.3 °F /  13.5 °C 29.75 in /  1007.3 hPa West 4.6 mph /  7.4 km/h 2.0 mph /  3.2 km/h 98 % 0.00 in /  0 mm 102.00 W/m2 OVC
11:49 56.9 °F /  13.8 °C 56.3 °F /  13.5 °C 29.75 in /  1007.3 hPa SSE 5.8 mph /  9.3 km/h 4.4 mph /  7.1 km/h 98 % 0.00 in /  0 mm 72.00 W/m2 OVC
11:54 56.9 °F /  13.8 °C 56.3 °F /  13.5 °C 29.74 in /  1007 hPa West 3.5 mph /  5.6 km/h 1.4 mph /  2.3 km/h 98 % 0.00 in /  0 mm 97.00 W/m2 OVC
11:59 57.0 °F /  13.9 °C 56.4 °F /  13.6 °C 29.75 in /  1007.3 hPa West 4.6 mph /  7.4 km/h 1.8 mph /  2.9 km/h 98 % 0.00 in /  0 mm 84.00 W/m2 OVC
12:04 57.1 °F /  13.9 °C 56.5 °F /  13.6 °C 29.75 in /  1007.3 hPa West 3.5 mph /  5.6 km/h 3.2 mph /  5.1 km/h 98 % 0.00 in /  0 mm 40.00 W/m2 OVC
12:09 57.1 °F /  13.9 °C 56.5 °F /  13.6 °C 29.74 in /  1007 hPa ESE 3.5 mph /  5.6 km/h 1.5 mph /  2.4 km/h 98 % 0.00 in /  0 mm 62.00 W/m2 OVC
12:14 57.1 °F /  13.9 °C 56.5 °F /  13.6 °C 29.74 in /  1007 hPa West 3.5 mph /  5.6 km/h 2.4 mph /  3.9 km/h 98 % 0.00 in /  0 mm 35.00 W/m2 OVC
12:19 57.1 °F /  13.9 °C 56.5 °F /  13.6 °C 29.74 in /  1007 hPa WSW 3.5 mph /  5.6 km/h 1.4 mph /  2.3 km/h 98 % 0.00 in /  0 mm 37.00 W/m2 OVC
12:24 57.1 °F /  13.9 °C 56.5 °F /  13.6 °C 29.74 in /  1007 hPa WNW 3.5 mph /  5.6 km/h 2.2 mph /  3.5 km/h 98 % 0.00 in /  0 mm 37.00 W/m2 OVC
12:29 57.1 °F /  13.9 °C 56.5 °F /  13.6 °C 29.75 in /  1007.3 hPa SE 3.5 mph /  5.6 km/h 2.3 mph /  3.7 km/h 98 % 0.01 in /  0.25 mm 35.00 W/m2 RA
12:34 57.0 °F /  13.9 °C 56.4 °F /  13.6 °C 29.75 in /  1007.3 hPa West 7.0 mph /  11.3 km/h 2.4 mph /  3.9 km/h 98 % 0.02 in /  0.51 mm 25.00 W/m2 RA
12:39 56.9 °F /  13.8 °C 56.1 °F /  13.4 °C 29.74 in /  1007 hPa WSW 5.8 mph /  9.3 km/h 2.0 mph /  3.2 km/h 97 % 0.02 in /  0.51 mm 21.00 W/m2 RA
12:44 56.9 °F /  13.8 °C 56.1 °F /  13.4 °C 29.75 in /  1007.3 hPa WSW 4.6 mph /  7.4 km/h 3.2 mph /  5.1 km/h 97 % 0.02 in /  0.51 mm 28.00 W/m2 OVC
12:49 56.8 °F /  13.8 °C 56.0 °F /  13.3 °C 29.75 in /  1007.3 hPa NW 5.8 mph /  9.3 km/h 3.5 mph /  5.6 km/h 97 % 0.02 in /  0.51 mm 35.00 W/m2 OVC
12:54 56.8 °F /  13.8 °C 56.0 °F /  13.3 °C 29.74 in /  1007 hPa SW 6.9 mph /  11.1 km/h 4.5 mph /  7.2 km/h 97 % 0.02 in /  0.51 mm 44.00 W/m2 OVC
12:59 56.7 °F /  13.7 °C 55.9 °F /  13.3 °C 29.74 in /  1007 hPa West 6.0 mph /  9.7 km/h 3.0 mph /  4.8 km/h 97 % 0.02 in /  0.51 mm 47.00 W/m2 OVC
13:04 56.7 °F /  13.7 °C 55.9 °F /  13.3 °C 29.75 in /  1007.3 hPa WSW 5.8 mph /  9.3 km/h 3.6 mph /  5.8 km/h 97 % 0.02 in /  0.51 mm 62.00 W/m2 OVC
13:09 56.7 °F /  13.7 °C 55.9 °F /  13.3 °C 29.75 in /  1007.3 hPa WSW 6.9 mph /  11.1 km/h 3.5 mph /  5.6 km/h 97 % 0.02 in /  0.51 mm 93.00 W/m2 OVC
13:14 56.8 °F /  13.8 °C 56.0 °F /  13.3 °C 29.74 in /  1007 hPa South 5.8 mph /  9.3 km/h 3.2 mph /  5.1 km/h 97 % 0.02 in /  0.51 mm 102.00 W/m2 OVC
13:19 56.8 °F /  13.8 °C 56.0 °F /  13.3 °C 29.75 in /  1007.3 hPa WSW 4.6 mph /  7.4 km/h 2.3 mph /  3.7 km/h 97 % 0.02 in /  0.51 mm 76.00 W/m2 OVC
13:24 56.7 °F /  13.7 °C 55.9 °F /  13.3 °C 29.75 in /  1007.3 hPa WSW 8.1 mph /  13 km/h 5.2 mph /  8.4 km/h 97 % 0.02 in /  0.51 mm 97.00 W/m2 OVC
13:29 56.6 °F /  13.7 °C 55.8 °F /  13.2 °C 29.75 in /  1007.3 hPa West 9.0 mph /  14.5 km/h 4.8 mph /  7.7 km/h 97 % 0.01 in /  0.25 mm 25.00 W/m2 OVC
13:34 56.5 °F /  13.6 °C 55.4 °F /  13 °C 29.76 in /  1007.7 hPa West 10.4 mph /  16.7 km/h 6.7 mph /  10.8 km/h 96 % 0.00 in /  0 mm 19.00 W/m2 OVC
13:39 56.2 °F /  13.4 °C 54.8 °F /  12.7 °C 29.77 in /  1008 hPa SW 11.5 mph /  18.5 km/h 5.4 mph /  8.7 km/h 95 % 0.00 in /  0 mm 58.00 W/m2 OVC
13:44 56.1 °F /  13.4 °C 54.7 °F /  12.6 °C 29.77 in /  1008 hPa West 9.2 mph /  14.8 km/h 3.9 mph /  6.3 km/h 95 % 0.00 in /  0 mm 62.00 W/m2 OVC
13:49 55.8 °F /  13.2 °C 54.4 °F /  12.4 °C 29.78 in /  1008.4 hPa WSW 9.0 mph /  14.5 km/h 4.9 mph /  7.9 km/h 95 % 0.00 in /  0 mm 118.00 W/m2 OVC
13:54 55.4 °F /  13 °C 53.7 °F /  12.1 °C 29.78 in /  1008.4 hPa West 9.2 mph /  14.8 km/h 6.5 mph /  10.5 km/h 94 % 0.00 in /  0 mm 114.00 W/m2 OVC
13:59 55.1 °F /  12.8 °C 53.1 °F /  11.7 °C 29.78 in /  1008.4 hPa WSW 11.5 mph /  18.5 km/h 6.3 mph /  10.1 km/h 93 % 0.00 in /  0 mm 93.00 W/m2 OVC
14:04 54.9 °F /  12.7 °C 52.6 °F /  11.4 °C 29.79 in /  1008.7 hPa West 8.1 mph /  13 km/h 6.5 mph /  10.5 km/h 92 % 0.00 in /  0 mm 128.00 W/m2 OVC
14:09 54.9 °F /  12.7 °C 52.6 °F /  11.4 °C 29.79 in /  1008.7 hPa West 9.2 mph /  14.8 km/h 6.4 mph /  10.3 km/h 92 % 0.00 in /  0 mm 144.00 W/m2 OVC
14:14 54.8 °F /  12.7 °C 51.9 °F /  11.1 °C 29.80 in /  1009 hPa WNW 11.5 mph /  18.5 km/h 7.6 mph /  12.2 km/h 90 % 0.00 in /  0 mm 141.00 W/m2 OVC
14:19 54.7 °F /  12.6 °C 51.5 °F /  10.8 °C 29.80 in /  1009 hPa WNW 10.4 mph /  16.7 km/h 7.3 mph /  11.7 km/h 89 % 0.00 in /  0 mm 118.00 W/m2 OVC
14:24 54.5 °F /  12.5 °C 50.7 °F /  10.4 °C 29.81 in /  1009.4 hPa West 11.0 mph /  17.7 km/h 8.4 mph /  13.5 km/h 87 % 0.00 in /  0 mm 76.00 W/m2 OVC
14:29 54.3 °F /  12.4 °C 50.2 °F /  10.1 °C 29.82 in /  1009.7 hPa WSW 11.5 mph /  18.5 km/h 8.1 mph /  13 km/h 86 % 0.00 in /  0 mm 44.00 W/m2 OVC
14:34 54.1 °F /  12.3 °C 50.3 °F /  10.2 °C 29.83 in /  1010 hPa West 11.5 mph /  18.5 km/h 6.1 mph /  9.8 km/h 87 % 0.00 in /  0 mm 28.00 W/m2 OVC
14:39 53.9 °F /  12.2 °C 50.1 °F /  10.1 °C 29.84 in /  1010.4 hPa West 11.5 mph /  18.5 km/h 8.7 mph /  14 km/h 87 % 0.00 in /  0 mm 25.00 W/m2 OVC
14:45 53.5 °F /  11.9 °C 49.4 °F /  9.7 °C 29.84 in /  1010.4 hPa West 12.7 mph /  20.4 km/h 9.2 mph /  14.8 km/h 86 % 0.00 in /  0 mm 42.00 W/m2 OVC
14:49 53.1 °F /  11.7 °C 49.0 °F /  9.4 °C 29.84 in /  1010.4 hPa West 11.5 mph /  18.5 km/h 8.7 mph /  14 km/h 86 % 0.00 in /  0 mm 69.00 W/m2 OVC
14:54 52.9 °F /  11.6 °C 48.5 °F /  9.2 °C 29.85 in /  1010.7 hPa WNW 12.7 mph /  20.4 km/h 9.8 mph /  15.8 km/h 85 % 0.00 in /  0 mm 125.00 W/m2 OVC
14:59 52.6 °F /  11.4 °C 48.2 °F /  9 °C 29.85 in /  1010.7 hPa WNW 12.7 mph /  20.4 km/h 8.7 mph /  14 km/h 85 % 0.00 in /  0 mm 151.00 W/m2 OVC
15:04 52.4 °F /  11.3 °C 47.4 °F /  8.6 °C 29.86 in /  1011.1 hPa West 11.5 mph /  18.5 km/h 9.8 mph /  15.8 km/h 83 % 0.00 in /  0 mm 127.00 W/m2 OVC
15:09 52.2 °F /  11.2 °C 46.9 °F /  8.3 °C 29.87 in /  1011.4 hPa WSW 9.2 mph /  14.8 km/h 6.2 mph /  10 km/h 82 % 0.00 in /  0 mm 121.00 W/m2 OVC
15:14 51.9 °F /  11.1 °C 46.6 °F /  8.1 °C 29.87 in /  1011.4 hPa West 11.5 mph /  18.5 km/h 6.5 mph /  10.5 km/h 82 % 0.00 in /  0 mm 72.00 W/m2 OVC
15:19 51.6 °F /  10.9 °C 46.6 °F /  8.1 °C 29.88 in /  1011.7 hPa West 7.0 mph /  11.3 km/h 4.9 mph /  7.9 km/h 83 % 0.00 in /  0 mm 40.00 W/m2 OVC
15:24 51.2 °F /  10.7 °C 45.9 °F /  7.7 °C 29.89 in /  1012.1 hPa WNW 8.1 mph /  13 km/h 6.7 mph /  10.8 km/h 82 % 0.00 in /  0 mm 28.00 W/m2 OVC
15:29 50.8 °F /  10.4 °C 45.5 °F /  7.5 °C 29.90 in /  1012.4 hPa West 13.8 mph /  22.2 km/h 7.5 mph /  12.1 km/h 82 % 0.00 in /  0 mm 42.00 W/m2 OVC
15:34 50.5 °F /  10.3 °C 45.5 °F /  7.5 °C 29.90 in /  1012.4 hPa WSW 9.2 mph /  14.8 km/h 4.2 mph /  6.8 km/h 83 % 0.00 in /  0 mm 65.00 W/m2 OVC
15:39 50.3 °F /  10.2 °C 45.0 °F /  7.2 °C 29.91 in /  1012.8 hPa WNW 9.2 mph /  14.8 km/h 7.0 mph /  11.3 km/h 82 % 0.00 in /  0 mm 77.00 W/m2 OVC
15:44 50.0 °F /  10 °C 44.1 °F /  6.7 °C 29.92 in /  1013.1 hPa WSW 10.4 mph /  16.7 km/h 6.1 mph /  9.8 km/h 80 % 0.00 in /  0 mm 79.00 W/m2 OVC
15:49 49.8 °F /  9.9 °C 43.9 °F /  6.6 °C 29.93 in /  1013.4 hPa NW 8.1 mph /  13 km/h 4.2 mph /  6.8 km/h 80 % 0.00 in /  0 mm 51.00 W/m2 OVC
15:54 49.7 °F /  9.8 °C 43.8 °F /  6.6 °C 29.93 in /  1013.4 hPa WNW 6.9 mph /  11.1 km/h 6.5 mph /  10.5 km/h 80 % 0.00 in /  0 mm 46.00 W/m2 OVC
15:59 49.5 °F /  9.7 °C 43.6 °F /  6.4 °C 29.93 in /  1013.4 hPa WNW 8.0 mph /  12.9 km/h 5.7 mph /  9.2 km/h 80 % 0.00 in /  0 mm 74.00 W/m2 OVC
16:04 49.2 °F /  9.6 °C 43.0 °F /  6.1 °C 29.94 in /  1013.8 hPa West 9.2 mph /  14.8 km/h 4.7 mph /  7.6 km/h 79 % 0.00 in /  0 mm 67.00 W/m2 OVC
16:09 49.0 °F /  9.4 °C 42.8 °F /  6 °C 29.95 in /  1014.1 hPa WNW 7.0 mph /  11.3 km/h 5.3 mph /  8.5 km/h 79 % 0.00 in /  0 mm 65.00 W/m2 OVC
16:14 48.7 °F /  9.3 °C 42.1 °F /  5.6 °C 29.95 in /  1014.1 hPa WNW 9.2 mph /  14.8 km/h 6.4 mph /  10.3 km/h 78 % 0.00 in /  0 mm 60.00 W/m2 OVC
16:19 48.4 °F /  9.1 °C 41.2 °F /  5.1 °C 29.95 in /  1014.1 hPa WNW 6.9 mph /  11.1 km/h 6.0 mph /  9.7 km/h 76 % 0.00 in /  0 mm 56.00 W/m2 OVC
16:24 48.1 °F /  8.9 °C 40.9 °F /  4.9 °C 29.95 in /  1014.1 hPa WNW 10.4 mph /  16.7 km/h 7.4 mph /  11.9 km/h 76 % 0.00 in /  0 mm 49.00 W/m2 OVC
16:29 47.7 °F /  8.7 °C 39.8 °F /  4.3 °C 29.96 in /  1014.4 hPa West 11.5 mph /  18.5 km/h 6.5 mph /  10.5 km/h 74 % 0.00 in /  0 mm 42.00 W/m2 OVC
16:34 47.4 °F /  8.6 °C 39.9 °F /  4.4 °C 29.96 in /  1014.4 hPa NW 9.2 mph /  14.8 km/h 6.6 mph /  10.6 km/h 75 % 0.00 in /  0 mm 33.00 W/m2 OVC
16:39 47.1 °F /  8.4 °C 39.9 °F /  4.4 °C 29.97 in /  1014.8 hPa West 8.1 mph /  13 km/h 3.4 mph /  5.5 km/h 76 % 0.00 in /  0 mm 33.00 W/m2 OVC
16:44 46.9 °F /  8.3 °C 40.1 °F /  4.5 °C 29.98 in /  1015.1 hPa WNW 5.8 mph /  9.3 km/h 3.3 mph /  5.3 km/h 77 % 0.00 in /  0 mm 32.00 W/m2 OVC
16:49 46.7 °F /  8.2 °C 40.2 °F /  4.6 °C 29.98 in /  1015.1 hPa West 3.5 mph /  5.6 km/h 3.1 mph /  5 km/h 78 % 0.00 in /  0 mm 28.00 W/m2 OVC
16:54 46.5 °F /  8.1 °C 40.0 °F /  4.4 °C 29.99 in /  1015.5 hPa West 5.8 mph /  9.3 km/h 3.2 mph /  5.1 km/h 78 % 0.00 in /  0 mm 23.00 W/m2 OVC
16:59 46.4 °F /  8 °C 39.9 °F /  4.4 °C 29.99 in /  1015.5 hPa West 6.9 mph /  11.1 km/h 3.6 mph /  5.8 km/h 78 % 0.00 in /  0 mm 19.00 W/m2 OVC
17:04 46.2 °F /  7.9 °C 39.7 °F /  4.3 °C 29.99 in /  1015.5 hPa West 5.8 mph /  9.3 km/h 3.5 mph /  5.6 km/h 78 % 0.00 in /  0 mm 14.00 W/m2 OVC
17:09 46.1 °F /  7.8 °C 38.6 °F /  3.7 °C 29.99 in /  1015.5 hPa West 10.4 mph /  16.7 km/h 4.8 mph /  7.7 km/h 75 % 0.00 in /  0 mm 11.00 W/m2 OVC
17:15 46.0 °F /  7.8 °C 38.9 °F /  3.8 °C 29.99 in /  1015.5 hPa WNW 3.5 mph /  5.6 km/h 3.3 mph /  5.3 km/h 76 % 0.00 in /  0 mm 7.00 W/m2 OVC
17:19 45.8 °F /  7.7 °C 39.0 °F /  3.9 °C 29.99 in /  1015.5 hPa West 3.5 mph /  5.6 km/h 3.1 mph /  5 km/h 77 % 0.00 in /  0 mm 5.00 W/m2 OVC
17:24 45.6 °F /  7.6 °C 38.8 °F /  3.8 °C 30.00 in /  1015.8 hPa West 3.5 mph /  5.6 km/h 2.8 mph /  4.5 km/h 77 % 0.00 in /  0 mm 0.00 W/m2 OVC
17:29 45.4 °F /  7.4 °C 38.3 °F /  3.5 °C 30.00 in /  1015.8 hPa West 10.4 mph /  16.7 km/h 5.6 mph /  9 km/h 76 % 0.00 in /  0 mm 0.00 W/m2 OVC
17:34 45.2 °F /  7.3 °C 38.1 °F /  3.4 °C 30.00 in /  1015.8 hPa WSW 3.5 mph /  5.6 km/h 2.9 mph /  4.7 km/h 76 % 0.00 in /  0 mm 0.00 W/m2 OVC
17:39 45.1 °F /  7.3 °C 38.0 °F /  3.3 °C 30.00 in /  1015.8 hPa WSW 3.5 mph /  5.6 km/h 2.6 mph /  4.2 km/h 76 % 0.00 in /  0 mm 0.00 W/m2 OVC
17:44 45.0 °F /  7.2 °C 38.2 °F /  3.4 °C 30.01 in /  1016.1 hPa West 6.0 mph /  9.7 km/h 3.1 mph /  5 km/h 77 % 0.00 in /  0 mm 0.00 W/m2 OVC
17:49 44.9 °F /  7.2 °C 38.1 °F /  3.4 °C 30.01 in /  1016.1 hPa West 3.5 mph /  5.6 km/h 3.6 mph /  5.8 km/h 77 % 0.00 in /  0 mm 0.00 W/m2 OVC
17:54 44.7 °F /  7.1 °C 37.9 °F /  3.3 °C 30.02 in /  1016.5 hPa West 3.5 mph /  5.6 km/h 2.3 mph /  3.7 km/h 77 % 0.00 in /  0 mm 0.00 W/m2 OVC
17:59 44.6 °F /  7 °C 38.2 °F /  3.4 °C 30.02 in /  1016.5 hPa West 4.6 mph /  7.4 km/h 3.4 mph /  5.5 km/h 78 % 0.00 in /  0 mm 0.00 W/m2 OVC
18:04 44.5 °F /  6.9 °C 38.4 °F /  3.6 °C 30.02 in /  1016.5 hPa WSW 3.5 mph /  5.6 km/h 2.5 mph /  4 km/h 79 % 0.00 in /  0 mm 0.00 W/m2 OVC
18:09 44.3 °F /  6.8 °C 38.2 °F /  3.4 °C 30.03 in /  1016.8 hPa West 3.5 mph /  5.6 km/h 2.5 mph /  4 km/h 79 % 0.00 in /  0 mm 0.00 W/m2 OVC
18:14 44.2 °F /  6.8 °C 38.1 °F /  3.4 °C 30.03 in /  1016.8 hPa West 3.5 mph /  5.6 km/h 2.4 mph /  3.9 km/h 79 % 0.00 in /  0 mm 0.00 W/m2 OVC
18:19 44.0 °F /  6.7 °C 37.9 °F /  3.3 °C 30.03 in /  1016.8 hPa WSW 3.5 mph /  5.6 km/h 2.7 mph /  4.3 km/h 79 % 0.00 in /  0 mm 0.00 W/m2 OVC
18:24 43.9 °F /  6.6 °C 38.1 °F /  3.4 °C 30.04 in /  1017.2 hPa WSW 3.5 mph /  5.6 km/h 1.9 mph /  3.1 km/h 80 % 0.00 in /  0 mm 0.00 W/m2 OVC
18:29 43.8 °F /  6.6 °C 38.0 °F /  3.3 °C 30.04 in /  1017.2 hPa WSW 3.5 mph /  5.6 km/h 2.1 mph /  3.4 km/h 80 % 0.00 in /  0 mm 0.00 W/m2 OVC
18:34 43.6 °F /  6.4 °C 37.8 °F /  3.2 °C 30.04 in /  1017.2 hPa West 4.0 mph /  6.4 km/h 3.2 mph /  5.1 km/h 80 % 0.00 in /  0 mm 0.00 W/m2 OVC
18:39 43.6 °F /  6.4 °C 37.5 °F /  3.1 °C 30.04 in /  1017.2 hPa West 3.5 mph /  5.6 km/h 2.8 mph /  4.5 km/h 79 % 0.00 in /  0 mm 0.00 W/m2 OVC
18:44 43.6 °F /  6.4 °C 37.8 °F /  3.2 °C 30.04 in /  1017.2 hPa West 3.5 mph /  5.6 km/h 2.0 mph /  3.2 km/h 80 % 0.00 in /  0 mm 0.00 W/m2 OVC
18:49 43.4 °F /  6.3 °C 38.0 °F /  3.3 °C 30.05 in /  1017.5 hPa WSW 3.5 mph /  5.6 km/h 1.5 mph /  2.4 km/h 81 % 0.00 in /  0 mm 0.00 W/m2 OVC
18:54 43.3 °F /  6.3 °C 37.9 °F /  3.3 °C 30.05 in /  1017.5 hPa Calm     81 % 0.00 in /  0 mm 0.00 W/m2 OVC
18:59 43.2 °F /  6.2 °C 37.8 °F /  3.2 °C 30.06 in /  1017.8 hPa WSW 2.3 mph /  3.7 km/h 0.5 mph /  0.8 km/h 81 % 0.00 in /  0 mm 0.00 W/m2 OVC
19:04 43.1 °F /  6.2 °C 37.7 °F /  3.2 °C 30.06 in /  1017.8 hPa Calm     81 % 0.00 in /  0 mm 0.00 W/m2 OVC
19:09 42.9 °F /  6.1 °C 37.5 °F /  3.1 °C 30.07 in /  1018.2 hPa WSW 2.3 mph /  3.7 km/h 1.7 mph /  2.7 km/h 81 % 0.00 in /  0 mm 0.00 W/m2 OVC
19:14 42.7 °F /  5.9 °C 37.6 °F /  3.1 °C 30.07 in /  1018.2 hPa WSW 2.3 mph /  3.7 km/h 1.7 mph /  2.7 km/h 82 % 0.00 in /  0 mm 0.00 W/m2 OVC
19:19 42.4 °F /  5.8 °C 37.6 °F /  3.1 °C 30.07 in /  1018.2 hPa WSW 2.3 mph /  3.7 km/h   83 % 0.00 in /  0 mm 0.00 W/m2 OVC
19:24 42.3 °F /  5.7 °C 37.5 °F /  3.1 °C 30.08 in /  1018.5 hPa Calm     83 % 0.00 in /  0 mm 0.00 W/m2 OVC
19:29 42.1 °F /  5.6 °C 37.3 °F /  2.9 °C 30.08 in /  1018.5 hPa Calm     83 % 0.00 in /  0 mm 0.00 W/m2 OVC
19:34 41.9 °F /  5.5 °C 37.4 °F /  3 °C 30.07 in /  1018.2 hPa Calm     84 % 0.00 in /  0 mm 0.00 W/m2 OVC
19:39 41.8 °F /  5.4 °C 37.3 °F /  2.9 °C 30.08 in /  1018.5 hPa Calm     84 % 0.00 in /  0 mm 0.00 W/m2 OVC
19:44 41.7 °F /  5.4 °C 37.2 °F /  2.9 °C 30.08 in /  1018.5 hPa Calm     84 % 0.00 in /  0 mm 0.00 W/m2 OVC
19:49 41.6 °F /  5.3 °C 37.4 °F /  3 °C 30.08 in /  1018.5 hPa Calm     85 % 0.00 in /  0 mm 0.00 W/m2 OVC
19:54 41.4 °F /  5.2 °C 37.2 °F /  2.9 °C 30.09 in /  1018.8 hPa Calm     85 % 0.00 in /  0 mm 0.00 W/m2 OVC
19:59 41.2 °F /  5.1 °C 36.7 °F /  2.6 °C 30.09 in /  1018.8 hPa WSW 4.0 mph /  6.4 km/h 3.2 mph /  5.1 km/h 84 % 0.00 in /  0 mm 0.00 W/m2 OVC
20:04 41.2 °F /  5.1 °C 36.4 °F /  2.4 °C 30.09 in /  1018.8 hPa West 5.8 mph /  9.3 km/h 4.1 mph /  6.6 km/h 83 % 0.00 in /  0 mm 0.00 W/m2 OVC
20:09 41.3 °F /  5.2 °C 35.9 °F /  2.2 °C 30.10 in /  1019.2 hPa West 6.9 mph /  11.1 km/h 4.0 mph /  6.4 km/h 81 % 0.00 in /  0 mm 0.00 W/m2 OVC
20:14 41.5 °F /  5.3 °C 35.5 °F /  1.9 °C 30.11 in /  1019.5 hPa West 3.5 mph /  5.6 km/h 2.7 mph /  4.3 km/h 79 % 0.00 in /  0 mm 0.00 W/m2 OVC
20:19 41.6 °F /  5.3 °C 35.2 °F /  1.8 °C 30.11 in /  1019.5 hPa WNW 3.5 mph /  5.6 km/h 2.4 mph /  3.9 km/h 78 % 0.00 in /  0 mm 0.00 W/m2 OVC
20:24 41.7 °F /  5.4 °C 35.7 °F /  2.1 °C 30.11 in /  1019.5 hPa West 3.5 mph /  5.6 km/h 2.0 mph /  3.2 km/h 79 % 0.00 in /  0 mm 0.00 W/m2 OVC
20:29 41.6 °F /  5.3 °C 35.6 °F /  2 °C 30.12 in /  1019.9 hPa West 2.3 mph /  3.7 km/h 1.6 mph /  2.6 km/h 79 % 0.00 in /  0 mm 0.00 W/m2 OVC
20:34 41.5 °F /  5.3 °C 35.5 °F /  1.9 °C 30.12 in /  1019.9 hPa West 2.3 mph /  3.7 km/h 0.9 mph /  1.4 km/h 79 % 0.00 in /  0 mm 0.00 W/m2 OVC
20:39 41.3 °F /  5.2 °C 35.3 °F /  1.8 °C 30.12 in /  1019.9 hPa West 2.3 mph /  3.7 km/h 1.6 mph /  2.6 km/h 79 % 0.00 in /  0 mm 0.00 W/m2 OVC
20:44 41.2 °F /  5.1 °C 34.9 °F /  1.6 °C 30.12 in /  1019.9 hPa WSW 3.5 mph /  5.6 km/h 2.0 mph /  3.2 km/h 78 % 0.00 in /  0 mm 0.00 W/m2 OVC
20:49 41.1 °F /  5.1 °C 34.8 °F /  1.6 °C 30.13 in /  1020.2 hPa West 3.5 mph /  5.6 km/h 2.2 mph /  3.5 km/h 78 % 0.00 in /  0 mm 0.00 W/m2 OVC
20:54 41.0 °F /  5 °C 35.0 °F /  1.7 °C 30.12 in /  1019.9 hPa West 2.3 mph /  3.7 km/h 1.7 mph /  2.7 km/h 79 % 0.00 in /  0 mm 0.00 W/m2 OVC
20:59 40.9 °F /  4.9 °C 34.6 °F /  1.4 °C 30.12 in /  1019.9 hPa West 2.3 mph /  3.7 km/h 1.0 mph /  1.6 km/h 78 % 0.00 in /  0 mm 0.00 W/m2 OVC
21:04 40.8 °F /  4.9 °C 34.8 °F /  1.6 °C 30.12 in /  1019.9 hPa Calm     79 % 0.00 in /  0 mm 0.00 W/m2 OVC
21:09 40.7 °F /  4.8 °C 34.7 °F /  1.5 °C 30.12 in /  1019.9 hPa Calm     79 % 0.00 in /  0 mm 0.00 W/m2 OVC
21:14 40.5 °F /  4.7 °C 34.5 °F /  1.4 °C 30.13 in /  1020.2 hPa Calm     79 % 0.00 in /  0 mm 0.00 W/m2 OVC
21:19 40.3 °F /  4.6 °C 34.3 °F /  1.3 °C 30.13 in /  1020.2 hPa WSW 2.3 mph /  3.7 km/h 0.7 mph /  1.1 km/h 79 % 0.00 in /  0 mm 0.00 W/m2 OVC
21:24 40.1 °F /  4.5 °C 34.1 °F /  1.2 °C 30.13 in /  1020.2 hPa Calm     79 % 0.00 in /  0 mm 0.00 W/m2 OVC
21:29 40.0 °F /  4.4 °C 33.7 °F /  0.9 °C 30.14 in /  1020.5 hPa Calm     78 % 0.00 in /  0 mm 0.00 W/m2 OVC
21:34 39.8 °F /  4.3 °C 33.8 °F /  1 °C 30.14 in /  1020.5 hPa WSW 2.3 mph /  3.7 km/h 0.9 mph /  1.4 km/h 79 % 0.00 in /  0 mm 0.00 W/m2 OVC
21:39 39.7 °F /  4.3 °C 33.7 °F /  0.9 °C 30.14 in /  1020.5 hPa WSW 2.0 mph /  3.2 km/h 0.8 mph /  1.3 km/h 79 % 0.00 in /  0 mm 0.00 W/m2 OVC
21:44 39.6 °F /  4.2 °C 33.3 °F /  0.7 °C 30.14 in /  1020.5 hPa WSW 2.3 mph /  3.7 km/h 1.0 mph /  1.6 km/h 78 % 0.00 in /  0 mm 0.00 W/m2 OVC
21:49 39.5 °F /  4.2 °C 33.2 °F /  0.7 °C 30.14 in /  1020.5 hPa WSW 2.3 mph /  3.7 km/h 0.7 mph /  1.1 km/h 78 % 0.00 in /  0 mm 0.00 W/m2 OVC
21:54 39.5 °F /  4.2 °C 33.2 °F /  0.7 °C 30.14 in /  1020.5 hPa Calm     78 % 0.00 in /  0 mm 0.00 W/m2 OVC
21:59 39.4 °F /  4.1 °C 33.1 °F /  0.6 °C 30.14 in /  1020.5 hPa WSW 2.0 mph /  3.2 km/h 1.0 mph /  1.6 km/h 78 % 0.00 in /  0 mm 0.00 W/m2 OVC
22:04 39.3 °F /  4.1 °C 32.7 °F /  0.4 °C 30.14 in /  1020.5 hPa WSW 2.3 mph /  3.7 km/h 1.1 mph /  1.8 km/h 77 % 0.00 in /  0 mm 0.00 W/m2 OVC
22:09 39.2 °F /  4 °C 32.6 °F /  0.3 °C 30.14 in /  1020.5 hPa WSW 3.5 mph /  5.6 km/h 1.6 mph /  2.6 km/h 77 % 0.00 in /  0 mm 0.00 W/m2 OVC
22:14 39.1 °F /  3.9 °C 32.5 °F /  0.3 °C 30.14 in /  1020.5 hPa WSW 2.0 mph /  3.2 km/h 0.7 mph /  1.1 km/h 77 % 0.00 in /  0 mm 0.00 W/m2 OVC
22:19 39.1 °F /  3.9 °C 32.5 °F /  0.3 °C 30.13 in /  1020.2 hPa Calm     77 % 0.00 in /  0 mm 0.00 W/m2 OVC
22:24 39.0 °F /  3.9 °C 32.4 °F /  0.2 °C 30.13 in /  1020.2 hPa WSW 2.3 mph /  3.7 km/h 0.7 mph /  1.1 km/h 77 % 0.00 in /  0 mm 0.00 W/m2 OVC
22:29 38.9 °F /  3.8 °C 32.0 °F /  0 °C 30.13 in /  1020.2 hPa Calm     76 % 0.00 in /  0 mm 0.00 W/m2 OVC
22:34 38.8 °F /  3.8 °C 31.9 °F /  -0.1 °C 30.13 in /  1020.2 hPa Calm     76 % 0.00 in /  0 mm 0.00 W/m2 OVC
22:39 38.7 °F /  3.7 °C 31.8 °F /  -0.1 °C 30.13 in /  1020.2 hPa Calm     76 % 0.00 in /  0 mm 0.00 W/m2 OVC
22:44 38.6 °F /  3.7 °C 32.0 °F /  0 °C 30.13 in /  1020.2 hPa Calm     77 % 0.00 in /  0 mm 0.00 W/m2 OVC
22:49 38.6 °F /  3.7 °C 32.0 °F /  0 °C 30.13 in /  1020.2 hPa Calm     77 % 0.00 in /  0 mm 0.00 W/m2 OVC
22:54 38.5 °F /  3.6 °C 32.2 °F /  0.1 °C 30.13 in /  1020.2 hPa Calm     78 % 0.00 in /  0 mm 0.00 W/m2 OVC
22:59 38.3 °F /  3.5 °C 32.0 °F /  0 °C 30.13 in /  1020.2 hPa Calm     78 % 0.00 in /  0 mm 0.00 W/m2 OVC
23:04 38.2 °F /  3.4 °C 31.9 °F /  -0.1 °C 30.13 in /  1020.2 hPa Calm     78 % 0.00 in /  0 mm 0.00 W/m2 OVC
23:09 38.0 °F /  3.3 °C 31.7 °F /  -0.2 °C 30.13 in /  1020.2 hPa Calm     78 % 0.00 in /  0 mm 0.00 W/m2 OVC
23:14 38.0 °F /  3.3 °C 31.7 °F /  -0.2 °C 30.13 in /  1020.2 hPa Calm     78 % 0.00 in /  0 mm 0.00 W/m2 OVC
23:19 37.9 °F /  3.3 °C 31.7 °F /  -0.2 °C 30.14 in /  1020.5 hPa Calm     78 % 0.00 in /  0 mm 0.00 W/m2 OVC
23:24 37.8 °F /  3.2 °C 31.6 °F /  -0.2 °C 30.14 in /  1020.5 hPa SW 3.5 mph /  5.6 km/h 1.4 mph /  2.3 km/h 78 % 0.00 in /  0 mm 0.00 W/m2 OVC
23:29 37.8 °F /  3.2 °C 31.6 °F /  -0.2 °C 30.13 in /  1020.2 hPa SW 2.3 mph /  3.7 km/h 0.4 mph /  0.6 km/h 78 % 0.00 in /  0 mm 0.00 W/m2 OVC
23:34 37.7 °F /  3.2 °C 31.5 °F /  -0.3 °C 30.14 in /  1020.5 hPa Calm     78 % 0.00 in /  0 mm 0.00 W/m2 OVC
23:39 37.7 °F /  3.2 °C 31.5 °F /  -0.3 °C 30.14 in /  1020.5 hPa SSW 3.5 mph /  5.6 km/h 1.3 mph /  2.1 km/h 78 % 0.00 in /  0 mm 0.00 W/m2 OVC
23:44 37.7 °F /  3.2 °C 31.5 °F /  -0.3 °C 30.14 in /  1020.5 hPa WSW 2.3 mph /  3.7 km/h 0.6 mph /  1 km/h 78 % 0.00 in /  0 mm 0.00 W/m2 OVC
23:49 37.6 °F /  3.1 °C 31.4 °F /  -0.3 °C 30.14 in /  1020.5 hPa WSW 2.3 mph /  3.7 km/h   78 % 0.00 in /  0 mm 0.00 W/m2 OVC
23:54 37.6 °F /  3.1 °C 31.4 °F /  -0.3 °C 30.14 in /  1020.5 hPa SW 2.3 mph /  3.7 km/h 1.1 mph /  1.8 km/h 78 % 0.00 in /  0 mm 0.00 W/m2 OVC
23:59 37.6 °F /  3.1 °C 31.4 °F /  -0.3 °C 30.14 in /  1020.5 hPa SSW 2.3 mph /  3.7 km/h 0.7 mph /  1.1 km/h 78 % 0.00 in /  0 mm 0.00 W/m2 OVC
Murfreesboro Weather Live
Compliments of Weather Underground - 2.25 mb